createdAt,value
2023-02-22T00:02:10.892Z,20.35
2023-02-22T00:07:14.967Z,19.77
2023-02-22T00:12:17.458Z,15.60
2023-02-22T00:17:20.584Z,18.27
2023-02-22T00:22:22.746Z,16.33
2023-02-22T00:27:24.962Z,17.55
2023-02-22T00:32:27.165Z,16.73
2023-02-22T00:37:31.756Z,18.88
2023-02-22T00:42:33.908Z,20.55
2023-02-22T00:47:36.124Z,18.58
2023-02-22T00:52:39.301Z,21.25
2023-02-22T00:57:41.643Z,19.67
2023-02-22T01:02:44.151Z,16.77
2023-02-22T01:07:49.842Z,18.52
2023-02-22T01:12:54.560Z,17.23
2023-02-22T01:17:58.419Z,18.77
2023-02-22T01:23:03.658Z,19.23
2023-02-22T01:28:07.565Z,23.23
2023-02-22T01:33:09.789Z,20.58
2023-02-22T01:38:14.285Z,18.48
2023-02-22T01:43:38.562Z,20.67
2023-02-22T01:48:42.237Z,17.05
2023-02-22T01:53:50.311Z,21.75
2023-02-22T01:59:13.016Z,17.48
2023-02-22T02:04:20.682Z,19.02
2023-02-22T02:09:46.560Z,19.65
2023-02-22T02:14:48.912Z,15.13
2023-02-22T02:20:08.718Z,24.05
2023-02-22T02:25:20.895Z,18.73
2023-02-22T02:30:43.346Z,21.52
2023-02-22T02:36:05.802Z,18.05
2023-02-22T02:41:17.715Z,20.25
2023-02-22T02:46:24.157Z,19.88
2023-02-22T02:51:32.316Z,17.35
2023-02-22T02:56:34.967Z,20.88
2023-02-22T03:01:37.210Z,17.90
2023-02-22T03:06:56.685Z,16.58
2023-02-22T03:12:25.741Z,14.57
2023-02-22T03:17:47.928Z,17.17
2023-02-22T03:23:15.779Z,18.05
2023-02-22T03:28:20.603Z,19.90
2023-02-22T03:33:33.817Z,20.35
2023-02-22T03:38:39.937Z,17.27
2023-02-22T03:43:50.515Z,17.92
2023-02-22T03:49:22.313Z,16.77
2023-02-22T03:54:24.998Z,13.18
2023-02-22T03:59:27.854Z,14.38
2023-02-22T04:04:30.043Z,12.68
2023-02-22T04:09:32.896Z,15.45
2023-02-22T04:14:35.352Z,15.45
2023-02-22T04:19:37.572Z,14.80
2023-02-22T04:24:40.376Z,15.23
2023-02-22T04:29:43.055Z,14.65
2023-02-22T04:34:45.321Z,16.55
2023-02-22T04:39:47.570Z,14.25
2023-02-22T04:44:49.865Z,14.68
2023-02-22T04:49:52.163Z,15.75
2023-02-22T04:54:54.560Z,14.65
2023-02-22T04:59:56.836Z,14.43
2023-02-22T05:05:00.298Z,17.00
2023-02-22T05:10:03.041Z,15.82
2023-02-22T05:15:06.777Z,16.33
2023-02-22T05:20:19.683Z,16.33
2023-02-22T05:25:21.909Z,17.23
2023-02-22T05:30:27.577Z,14.48
2023-02-22T05:35:30.697Z,16.10
2023-02-22T05:40:33.359Z,14.63
2023-02-22T05:45:36.233Z,12.38
2023-02-22T05:50:38.473Z,14.35
2023-02-22T05:55:40.605Z,12.00
2023-02-22T06:00:42.951Z,15.25
2023-02-22T06:05:45.117Z,12.30
2023-02-22T06:10:47.395Z,8.90
2023-02-22T06:15:49.553Z,6.93
2023-02-22T06:20:51.682Z,3.45
2023-02-22T06:25:54.051Z,2.08
2023-02-22T06:30:58.357Z,1.90
2023-02-22T06:36:00.508Z,1.75
2023-02-22T06:41:03.017Z,2.17
2023-02-22T06:46:05.329Z,1.42
2023-02-22T06:51:10.562Z,1.00
2023-02-22T06:56:12.954Z,1.30
2023-02-22T07:01:16.087Z,1.50
2023-02-22T07:06:18.514Z,1.38
2023-02-22T07:11:20.793Z,1.48
2023-02-22T07:16:22.990Z,1.38
2023-02-22T07:21:25.147Z,1.60
2023-02-22T07:26:27.624Z,2.13
2023-02-22T07:31:34.471Z,1.58
2023-02-22T07:36:36.616Z,1.88
2023-02-22T07:41:40.405Z,1.10
2023-02-22T07:47:00.593Z,0.57
2023-02-22T07:52:02.837Z,0.77
2023-02-22T07:57:05.307Z,1.30
2023-02-22T08:02:15.664Z,1.10
2023-02-22T08:07:17.874Z,0.93
2023-02-22T08:12:20.350Z,0.82
2023-02-22T08:17:22.802Z,3.00
2023-02-22T08:22:25.074Z,3.88
2023-02-22T08:27:29.856Z,1.52
2023-02-22T08:32:32.246Z,1.02
2023-02-22T08:37:35.560Z,0.70
2023-02-22T08:42:38.033Z,1.10
2023-02-22T08:47:40.885Z,1.95
2023-02-22T08:52:42.988Z,1.50
2023-02-22T08:57:45.128Z,2.90
2023-02-22T09:02:47.371Z,2.22
2023-02-22T09:07:49.500Z,1.60
2023-02-22T09:12:52.934Z,1.75
2023-02-22T09:17:55.777Z,3.47
2023-02-22T09:22:58.211Z,1.80
2023-02-22T09:28:00.518Z,2.72
2023-02-22T09:33:06.666Z,2.08
2023-02-22T09:38:10.423Z,3.00
2023-02-22T09:43:24.913Z,1.17
2023-02-22T09:48:27.216Z,1.73
2023-02-22T09:53:44.588Z,1.20
2023-02-22T09:58:54.946Z,0.93
2023-02-22T10:04:10.235Z,1.20
2023-02-22T10:09:12.596Z,0.77
2023-02-22T10:14:56.916Z,1.67
2023-02-22T10:20:38.260Z,2.03
2023-02-22T10:25:45.184Z,1.73
2023-02-22T10:30:58.606Z,2.40
2023-02-22T10:36:01.337Z,1.73
2023-02-22T10:41:09.322Z,2.05
2023-02-22T10:46:17.984Z,1.40
2023-02-22T10:51:21.236Z,2.05
2023-02-22T10:56:26.827Z,1.38
2023-02-22T11:01:33.407Z,2.15
2023-02-22T11:06:35.634Z,2.20
2023-02-22T11:11:40.244Z,1.40
2023-02-22T11:16:47.516Z,2.35
2023-02-22T11:22:09.598Z,1.70
2023-02-22T11:27:26.773Z,1.15
2023-02-22T11:32:28.950Z,1.00
2023-02-22T11:37:36.526Z,1.90
2023-02-22T11:42:42.701Z,1.55
2023-02-22T11:47:59.969Z,3.33
2023-02-22T11:53:15.026Z,1.75
2023-02-22T11:58:30.638Z,2.67
2023-02-22T12:04:07.242Z,1.42
2023-02-22T12:09:19.391Z,0.85
2023-02-22T12:14:38.668Z,1.63
2023-02-22T12:25:33.284Z,1.63
2023-02-22T12:30:40.365Z,1.90
2023-02-22T12:35:53.613Z,0.98
2023-02-22T12:41:38.437Z,0.65
2023-02-22T12:46:44.792Z,0.98
2023-02-22T12:52:21.341Z,1.65
2023-02-22T12:57:48.279Z,1.80
2023-02-22T13:03:22.973Z,1.55
2023-02-22T13:08:32.819Z,1.15
2023-02-22T13:13:47.142Z,2.40
2023-02-22T13:19:14.149Z,1.83
2023-02-22T13:24:49.515Z,1.55
2023-02-22T13:30:00.605Z,2.03
2023-02-22T13:35:17.318Z,0.90
2023-02-22T13:41:02.515Z,1.05
2023-02-22T13:46:26.456Z,0.93
2023-02-22T13:51:43.454Z,2.28
2023-02-22T13:57:29.210Z,1.42
2023-02-22T14:02:55.671Z,2.00
2023-02-22T14:07:59.420Z,1.45
2023-02-22T14:13:07.463Z,1.88
2023-02-22T14:18:20.200Z,1.60
2023-02-22T14:23:47.615Z,2.47
2023-02-22T14:29:08.583Z,1.88
2023-02-22T14:34:15.828Z,1.30
2023-02-22T14:39:32.555Z,2.40
2023-02-22T14:44:51.173Z,1.13
2023-02-22T14:49:57.792Z,1.15
2023-02-22T14:55:24.908Z,0.93
2023-02-22T15:00:53.059Z,1.55
2023-02-22T15:05:55.242Z,1.25
2023-02-22T15:10:58.893Z,1.65
2023-02-22T15:16:23.704Z,1.20
2023-02-22T15:21:30.013Z,0.75
2023-02-22T15:27:00.200Z,1.20
2023-02-22T15:32:49.949Z,2.50
2023-02-22T15:38:17.457Z,0.95
2023-02-22T15:43:24.612Z,1.38
2023-02-22T15:48:30.718Z,1.90
2023-02-22T15:54:01.906Z,0.93
2023-02-22T15:59:30.960Z,1.30
2023-02-22T16:04:37.737Z,1.80
2023-02-22T16:09:39.922Z,1.30
2023-02-22T16:14:45.469Z,1.70
2023-02-22T16:19:50.483Z,1.40
2023-02-22T16:24:54.605Z,1.35
2023-02-22T16:30:25.764Z,1.50
2023-02-22T16:35:30.402Z,1.15
2023-02-22T16:40:47.700Z,0.95
2023-02-22T16:45:49.970Z,1.05
2023-02-22T16:50:55.461Z,2.28
2023-02-22T16:56:09.218Z,1.02
2023-02-22T17:01:13.432Z,1.70
2023-02-22T17:06:16.057Z,1.58
2023-02-22T17:11:18.970Z,1.58
2023-02-22T17:16:22.372Z,1.23
2023-02-22T17:21:25.282Z,2.13
2023-02-22T17:26:35.381Z,1.10
2023-02-22T17:31:38.172Z,2.05
2023-02-22T17:36:40.645Z,0.77
2023-02-22T17:41:50.298Z,1.65
2023-02-22T17:46:53.288Z,1.38
2023-02-22T17:51:56.885Z,1.63
2023-02-22T17:56:59.030Z,1.30
2023-02-22T18:02:03.251Z,2.20
2023-02-22T18:07:05.514Z,2.92
2023-02-22T18:12:07.857Z,1.40
2023-02-22T18:17:10.816Z,2.72
2023-02-22T18:22:13.184Z,1.08
2023-02-22T18:27:15.593Z,0.82
2023-02-22T18:32:17.779Z,1.63
2023-02-22T18:37:20.557Z,1.52
2023-02-22T18:42:23.744Z,1.45
2023-02-22T18:47:26.223Z,1.30
2023-02-22T18:52:31.061Z,1.08
2023-02-22T18:57:33.188Z,1.15
2023-02-22T19:02:36.360Z,1.45
2023-02-22T19:07:40.827Z,1.17
2023-02-22T19:12:42.959Z,0.93
2023-02-22T19:17:45.346Z,1.52
2023-02-22T19:22:49.307Z,1.75
2023-02-22T19:27:51.750Z,1.27
2023-02-22T19:32:53.911Z,0.52
2023-02-22T19:37:56.332Z,1.63
2023-02-22T19:42:58.555Z,0.57
2023-02-22T19:48:00.684Z,0.60
2023-02-22T19:53:02.816Z,1.27
2023-02-22T19:58:04.923Z,0.98
2023-02-22T20:03:09.319Z,0.88
2023-02-22T20:08:11.651Z,0.82
2023-02-22T20:13:13.942Z,2.20
2023-02-22T20:18:18.690Z,1.02
2023-02-22T20:23:20.973Z,1.63
2023-02-22T20:28:24.358Z,1.45
2023-02-22T20:33:26.782Z,0.98
2023-02-22T20:38:29.246Z,1.30
2023-02-22T20:43:31.645Z,1.85
2023-02-22T20:48:34.203Z,3.15
2023-02-22T20:53:39.467Z,3.30
2023-02-22T20:58:42.172Z,4.90
2023-02-22T21:03:44.451Z,4.13
2023-02-22T21:08:54.419Z,3.40
2023-02-22T21:13:57.056Z,2.55
2023-02-22T21:19:02.135Z,4.53
2023-02-22T21:24:04.421Z,4.00
2023-02-22T21:29:06.880Z,5.05
2023-02-22T21:34:12.263Z,4.78
2023-02-22T21:39:19.204Z,3.53
2023-02-22T21:44:21.800Z,3.13
2023-02-22T21:49:25.009Z,3.60
2023-02-22T21:54:28.085Z,3.67
2023-02-22T21:59:30.232Z,2.80
2023-02-22T22:04:34.941Z,5.38
2023-02-22T22:09:41.335Z,4.10
2023-02-22T22:14:43.534Z,3.95
2023-02-22T22:19:48.879Z,3.22
2023-02-22T22:24:51.120Z,3.45
2023-02-22T22:29:57.213Z,3.25
2023-02-22T22:34:59.533Z,3.63
2023-02-22T22:40:04.205Z,3.40
2023-02-22T22:45:09.054Z,2.50
2023-02-22T22:50:26.560Z,3.88
2023-02-22T22:55:28.710Z,2.22
2023-02-22T23:00:33.747Z,2.00
2023-02-22T23:05:42.386Z,3.65
2023-02-22T23:10:44.494Z,2.90
2023-02-22T23:15:49.534Z,3.08
2023-02-22T23:20:55.306Z,3.50
2023-02-22T23:26:12.135Z,3.10
2023-02-22T23:31:18.104Z,2.92
2023-02-22T23:36:20.470Z,3.17
2023-02-22T23:41:25.252Z,2.40
2023-02-22T23:46:30.052Z,2.65
2023-02-22T23:51:39.558Z,2.45
2023-02-22T23:56:53.645Z,1.70
